Aérodrome :
LOGIN :

S'inscrire | Disclaimer

   EN    FR    IT 

 










Légende :    VFR   VFR Marginal   IFR   IFR Intensif   IFR Très Intensif
Visi : 
Plafond : 
>= 8 km
>= 3000ft
5 à 8 km
1000 à 3000 ft
1500m à 5 km
500 à 1000 ft
800 à 1500m
200 à 500 ft
< 800m
< 200 ft
Symboles :   Orages  Brouillard  Fortes neiges  Fortes précipitations  Vent > 20 kt
SIGMETs :   Divers  Orages  Givrage  Turbulence  Onde Orograph.  Cendres Volcan.







- Altitude de l'aérodrome : 1768 ft


LEHC - Huesca Pirineos

DERNIER METAR :
  • 211130Z 11005KT 060V160 9999 FEW030 11/07 Q1011

METARs EXPIRÉS :
  • 211100Z 11004KT 060V160 9999 FEW030 11/07 Q1011
  • 211030Z 07004KT 020V090 9999 FEW025 10/06 Q1010
  • 211000Z VRB02KT 9999 FEW033 09/07 Q1010
  • 210930Z VRB01KT 9999 FEW035 BKN041 09/07 Q1010
  • 210900Z VRB02KT 9999 FEW047 BKN067 08/06 Q1010

TAF TAF LEHC
Valide du 21 à 09h jusqu'au 22 à 09h UTC


210800Z 2109/2209 VRB03KT 9999 SCT050 TX13/2115Z TN05/2205Z
TEMPO 2109/2202 09007KT
PROB30
TEMPO 2109/2112 RA BKN050
PROB40
TEMPO 2120/2206 0800 BCFG VV002
Pas de NOTAMs connus pour ce terrain.



MET'MAP, la Météo Aéronautique d'un coup d'oeil ! - Copyright ORBIFLY Décembre 2007 - Disclaimer

ORBIFLY MET'MAP TEAM :

Programmation & Développement : Alexandra Zaïnal
Conception & Développement : Baudouin d'Aumeries
Co-Programmation & Développement : Marc-Olivier Méhu
Soutien technique & logistique : Manuel Goepfert

Contact : metmap@orbifly.com




SOURCES & CREDITS :

   NOAA